createdAt,value
2019-02-28T00:02:33.415Z,5.50
2019-02-28T00:05:15.490Z,5.50
2019-02-28T00:07:57.585Z,5.50
2019-02-28T00:10:39.374Z,5.40
2019-02-28T00:13:22.786Z,5.50
2019-02-28T00:16:05.173Z,5.40
2019-02-28T00:18:49.499Z,5.40
2019-02-28T00:21:31.135Z,5.30
2019-02-28T00:24:13.536Z,5.30
2019-02-28T00:26:56.136Z,5.30
2019-02-28T00:29:38.455Z,5.20
2019-02-28T00:32:21.364Z,5.20
2019-02-28T00:35:04.393Z,5.20
2019-02-28T00:37:46.406Z,5.20
2019-02-28T00:40:28.728Z,5.20
2019-02-28T00:43:10.545Z,5.30
2019-02-28T00:45:52.523Z,5.30
2019-02-28T00:48:34.740Z,5.30
2019-02-28T00:51:16.814Z,5.30
2019-02-28T00:53:59.232Z,5.30
2019-02-28T00:56:41.460Z,5.30
2019-02-28T00:59:23.803Z,5.30
2019-02-28T01:02:06.058Z,5.30
2019-02-28T01:04:48.735Z,5.30
2019-02-28T01:07:31.102Z,5.30
2019-02-28T01:10:13.410Z,5.30
2019-02-28T01:12:56.012Z,5.30
2019-02-28T01:15:44.601Z,5.30
2019-02-28T01:18:22.802Z,5.30
2019-02-28T01:21:05.142Z,5.30
2019-02-28T01:23:47.534Z,5.30
2019-02-28T01:26:30.548Z,5.40
2019-02-28T01:29:12.520Z,5.40
2019-02-28T01:31:54.828Z,5.30
2019-02-28T01:34:36.681Z,5.30
2019-02-28T01:37:20.894Z,5.30
2019-02-28T01:40:04.383Z,5.30
2019-02-28T01:42:47.097Z,5.30
2019-02-28T01:45:28.939Z,5.30
2019-02-28T01:48:10.880Z,5.30
2019-02-28T01:50:53.148Z,5.30
2019-02-28T01:53:35.174Z,5.30
2019-02-28T01:56:17.643Z,5.30
2019-02-28T01:59:00.009Z,5.30
2019-02-28T02:01:42.207Z,5.30
2019-02-28T02:04:23.965Z,5.20
2019-02-28T02:07:06.220Z,5.20
2019-02-28T02:09:48.572Z,5.20
2019-02-28T02:12:31.829Z,5.20
2019-02-28T02:15:16.829Z,5.20
2019-02-28T02:17:58.581Z,5.10
2019-02-28T02:20:40.603Z,5.10
2019-02-28T02:23:23.304Z,5.10
2019-02-28T02:26:05.366Z,5.10
2019-02-28T02:28:47.844Z,5.10
2019-02-28T02:31:30.105Z,5.10
2019-02-28T02:34:12.684Z,5.10
2019-02-28T02:36:55.147Z,5.10
2019-02-28T02:39:37.352Z,5.00
2019-02-28T02:42:19.526Z,5.00
2019-02-28T02:45:04.772Z,5.00
2019-02-28T02:47:45.542Z,5.00
2019-02-28T02:50:33.924Z,5.00
2019-02-28T02:53:12.521Z,5.00
2019-02-28T02:55:54.553Z,5.00
2019-02-28T02:58:36.516Z,5.00
2019-02-28T03:01:23.143Z,5.00
2019-02-28T03:04:02.719Z,5.00
2019-02-28T03:06:45.860Z,5.10
2019-02-28T03:09:29.220Z,5.00
2019-02-28T03:12:11.520Z,5.10
2019-02-28T03:14:53.999Z,5.10
2019-02-28T03:17:36.063Z,5.20
2019-02-28T03:20:18.123Z,5.20
2019-02-28T03:23:02.214Z,5.20
2019-02-28T03:25:44.571Z,5.30
2019-02-28T03:28:15.301Z,5.30
2019-02-28T03:30:46.215Z,5.20
2019-02-28T03:33:27.286Z,5.30
2019-02-28T03:35:51.272Z,5.30
2019-02-28T03:38:22.056Z,5.30
2019-02-28T03:40:52.843Z,5.30
2019-02-28T03:43:23.478Z,5.30
2019-02-28T03:45:54.337Z,5.30
2019-02-28T03:48:25.123Z,5.30
2019-02-28T03:50:57.228Z,5.30
2019-02-28T03:53:27.852Z,5.30
2019-02-28T03:55:58.915Z,5.30
2019-02-28T03:58:29.819Z,5.20
2019-02-28T04:01:08.957Z,5.30
2019-02-28T04:03:34.799Z,5.30
2019-02-28T04:06:08.600Z,5.20
2019-02-28T04:08:40.266Z,5.20
2019-02-28T04:11:12.416Z,5.20
2019-02-28T04:13:43.165Z,5.20
2019-02-28T04:16:14.033Z,5.20
2019-02-28T04:18:46.620Z,5.20
2019-02-28T04:21:18.510Z,5.20
2019-02-28T04:23:49.339Z,5.20
2019-02-28T04:26:22.035Z,5.20
2019-02-28T04:28:54.648Z,5.20
2019-02-28T04:31:27.111Z,5.20
2019-02-28T04:33:57.920Z,5.20
2019-02-28T04:36:28.708Z,5.20
2019-02-28T04:38:59.628Z,5.10
2019-02-28T04:41:32.915Z,5.10
2019-02-28T04:44:02.872Z,5.10
2019-02-28T04:46:33.581Z,5.10
2019-02-28T04:49:04.473Z,5.10
2019-02-28T04:51:37.029Z,5.00
2019-02-28T04:54:07.696Z,5.00
2019-02-28T04:56:39.154Z,5.00
2019-02-28T04:59:11.644Z,5.00
2019-02-28T05:01:45.190Z,5.00
2019-02-28T05:04:22.445Z,5.00
2019-02-28T05:06:55.236Z,4.90
2019-02-28T05:09:25.754Z,4.90
2019-02-28T05:11:56.535Z,4.90
2019-02-28T05:14:29.128Z,4.90
2019-02-28T05:17:01.403Z,4.90
2019-02-28T05:19:35.587Z,4.90
2019-02-28T05:22:04.628Z,4.90
2019-02-28T05:24:39.493Z,4.90
2019-02-28T05:27:10.395Z,5.00
2019-02-28T05:29:43.878Z,5.00
2019-02-28T05:32:14.480Z,5.10
2019-02-28T05:34:47.400Z,5.10
2019-02-28T05:37:18.955Z,5.10
2019-02-28T05:39:49.736Z,5.20
2019-02-28T05:42:23.345Z,5.20
2019-02-28T05:44:54.117Z,5.20
2019-02-28T05:47:26.031Z,5.20
2019-02-28T05:49:57.125Z,5.20
2019-02-28T05:52:30.553Z,5.20
2019-02-28T05:55:00.631Z,5.20
2019-02-28T05:57:31.417Z,5.20
2019-02-28T06:00:02.999Z,5.20
2019-02-28T06:02:34.109Z,5.20
2019-02-28T06:05:05.174Z,5.20
2019-02-28T06:07:40.491Z,5.20
2019-02-28T06:10:12.328Z,5.30
2019-02-28T06:12:44.237Z,5.30
2019-02-28T06:15:16.214Z,5.40
2019-02-28T06:17:47.091Z,5.40
2019-02-28T06:20:19.114Z,5.50
2019-02-28T06:22:49.930Z,5.50
2019-02-28T06:25:23.887Z,5.50
2019-02-28T06:27:53.324Z,5.50
2019-02-28T06:30:24.210Z,5.50
2019-02-28T06:32:59.076Z,5.60
2019-02-28T06:35:28.803Z,5.50
2019-02-28T06:37:59.714Z,5.60
2019-02-28T06:40:33.128Z,5.60
2019-02-28T06:43:03.655Z,5.60
2019-02-28T06:45:37.631Z,5.50
2019-02-28T06:48:07.791Z,5.50
2019-02-28T06:50:38.685Z,5.60
2019-02-28T06:53:09.359Z,5.60
2019-02-28T06:55:47.984Z,5.60
2019-02-28T06:58:19.124Z,5.60
2019-02-28T07:00:50.513Z,5.60
2019-02-28T07:03:21.447Z,5.60
2019-02-28T07:05:52.325Z,5.60
2019-02-28T07:08:24.801Z,5.70
2019-02-28T07:10:58.176Z,5.70
2019-02-28T07:13:30.223Z,5.70
2019-02-28T07:16:01.043Z,5.70
2019-02-28T07:18:31.895Z,5.70
2019-02-28T07:21:07.292Z,5.70
2019-02-28T07:23:39.161Z,5.80
2019-02-28T07:26:09.888Z,5.80
2019-02-28T07:28:40.744Z,5.90
2019-02-28T07:31:11.571Z,5.90
2019-02-28T07:33:44.531Z,5.90
2019-02-28T07:36:14.704Z,6.00
2019-02-28T07:38:45.431Z,6.00
2019-02-28T07:41:16.248Z,6.00
2019-02-28T07:43:47.117Z,6.10
2019-02-28T07:46:17.991Z,6.20
2019-02-28T07:48:49.342Z,6.20
2019-02-28T07:51:22.709Z,6.30
2019-02-28T07:53:52.887Z,6.40
2019-02-28T07:56:23.979Z,6.40
2019-02-28T07:58:54.817Z,6.40
2019-02-28T08:01:27.574Z,6.50
2019-02-28T08:03:57.841Z,6.50
2019-02-28T08:06:28.672Z,6.60
2019-02-28T08:09:01.725Z,6.70
2019-02-28T08:11:32.058Z,6.70
2019-02-28T08:14:05.606Z,6.80
2019-02-28T08:16:36.711Z,6.80
2019-02-28T08:19:07.590Z,6.80
2019-02-28T08:21:43.907Z,6.90
2019-02-28T08:24:12.342Z,6.90
2019-02-28T08:26:43.748Z,7.00
2019-02-28T08:29:14.720Z,7.00
2019-02-28T08:31:45.408Z,7.00
2019-02-28T08:34:16.030Z,7.10
2019-02-28T08:36:47.564Z,7.10
2019-02-28T08:39:18.369Z,7.20
2019-02-28T08:41:49.681Z,7.30
2019-02-28T08:44:23.760Z,7.40
2019-02-28T08:46:54.880Z,7.30
2019-02-28T08:49:25.467Z,7.40
2019-02-28T08:51:56.184Z,7.40
2019-02-28T08:54:27.596Z,7.40
2019-02-28T08:56:58.348Z,7.50
2019-02-28T08:59:29.207Z,7.50
2019-02-28T09:01:59.946Z,7.50
2019-02-28T09:04:40.976Z,7.60
2019-02-28T09:07:05.845Z,7.60
2019-02-28T09:09:36.591Z,7.70
2019-02-28T09:12:07.500Z,7.70
2019-02-28T09:14:39.448Z,7.70
2019-02-28T09:17:10.323Z,7.80
2019-02-28T09:19:41.202Z,7.90
2019-02-28T09:22:12.044Z,7.90
2019-02-28T09:24:43.696Z,7.90
2019-02-28T09:27:15.800Z,8.00
2019-02-28T09:33:28.204Z,8.00
2019-02-28T09:36:10.352Z,8.00
2019-02-28T09:38:56.979Z,8.00
2019-02-28T09:41:40.211Z,8.10
2019-02-28T09:44:21.842Z,8.10
2019-02-28T09:47:04.254Z,8.10
2019-02-28T09:49:47.279Z,8.10
2019-02-28T09:52:29.701Z,8.10
2019-02-28T09:55:11.963Z,8.20
2019-02-28T09:57:54.999Z,8.20
2019-02-28T10:00:37.299Z,8.20
2019-02-28T10:03:19.809Z,8.20
2019-02-28T10:06:01.961Z,8.20
2019-02-28T10:08:44.118Z,8.20
2019-02-28T10:11:31.188Z,8.40
2019-02-28T10:14:12.162Z,8.50
2019-02-28T10:16:54.375Z,8.50
2019-02-28T10:19:44.711Z,8.50
2019-02-28T10:22:20.688Z,8.50
2019-02-28T10:25:03.557Z,8.60
2019-02-28T10:27:46.909Z,8.50
2019-02-28T10:30:32.116Z,8.50
2019-02-28T10:33:14.340Z,8.60
2019-02-28T10:35:57.593Z,8.70
2019-02-28T10:38:39.546Z,8.70
2019-02-28T10:41:24.267Z,8.80
2019-02-28T10:44:05.827Z,8.90
2019-02-28T10:46:50.305Z,8.90
2019-02-28T10:49:32.027Z,9.00
2019-02-28T10:52:14.172Z,8.90
2019-02-28T10:54:56.860Z,9.00
2019-02-28T10:57:40.412Z,9.00
2019-02-28T11:00:23.987Z,9.10
2019-02-28T11:03:06.239Z,9.10
2019-02-28T11:05:53.442Z,9.10
2019-02-28T11:08:31.873Z,9.10
2019-02-28T11:11:13.786Z,9.10
2019-02-28T11:13:56.119Z,9.20
2019-02-28T11:16:38.406Z,9.30
2019-02-28T11:19:20.678Z,9.20
2019-02-28T11:22:04.735Z,9.20
2019-02-28T11:24:47.240Z,9.30
2019-02-28T11:27:29.685Z,9.20
2019-02-28T11:30:12.151Z,9.30
2019-02-28T11:32:54.128Z,9.30
2019-02-28T11:35:36.981Z,9.30
2019-02-28T11:38:21.466Z,9.30
2019-02-28T11:41:03.408Z,9.30
2019-02-28T11:43:45.601Z,9.30
2019-02-28T11:46:27.817Z,9.30
2019-02-28T11:49:10.106Z,9.30
2019-02-28T11:51:53.164Z,9.30
2019-02-28T11:54:36.249Z,9.30
2019-02-28T11:57:18.017Z,9.40
2019-02-28T12:00:01.534Z,9.50
2019-02-28T12:02:52.930Z,9.50
2019-02-28T12:05:28.546Z,9.50
2019-02-28T12:08:11.095Z,9.50
2019-02-28T12:10:53.003Z,9.60
2019-02-28T12:13:35.137Z,9.50
2019-02-28T12:16:19.310Z,9.40
2019-02-28T12:19:01.215Z,9.40
2019-02-28T12:21:43.413Z,9.40
2019-02-28T12:24:25.371Z,9.40
2019-02-28T12:27:08.022Z,9.60
2019-02-28T12:29:50.330Z,9.60
2019-02-28T12:32:32.508Z,9.60
2019-02-28T12:35:14.444Z,9.70
2019-02-28T12:37:56.524Z,9.70
2019-02-28T12:40:38.660Z,9.80
2019-02-28T12:43:20.550Z,9.60
2019-02-28T12:46:02.990Z,9.60
2019-02-28T12:48:45.621Z,9.80
2019-02-28T12:51:29.498Z,9.90
2019-02-28T12:54:11.364Z,9.80
2019-02-28T12:56:53.255Z,9.90
2019-02-28T12:59:35.769Z,9.90
2019-02-28T13:02:16.587Z,10.00
2019-02-28T13:05:09.220Z,10.00
2019-02-28T13:24:20.202Z,10.20
2019-02-28T13:30:53.785Z,10.10
2019-02-28T13:37:19.756Z,9.90
2019-02-28T13:40:09.750Z,9.80
2019-02-28T13:43:01.662Z,9.90
2019-02-28T13:46:02.656Z,10.00
2019-02-28T13:48:44.788Z,10.20
2019-02-28T13:51:26.991Z,10.30
2019-02-28T13:54:09.131Z,10.30
2019-02-28T13:56:51.391Z,10.10
2019-02-28T13:59:33.794Z,10.10
2019-02-28T14:02:15.939Z,10.10
2019-02-28T14:04:58.660Z,10.20
2019-02-28T14:07:42.467Z,10.30
2019-02-28T14:10:24.604Z,10.40
2019-02-28T14:13:06.709Z,10.60
2019-02-28T14:15:52.434Z,10.60
2019-02-28T14:18:32.907Z,10.70
2019-02-28T14:21:14.951Z,10.80
2019-02-28T14:23:59.040Z,11.20
2019-02-28T14:26:42.962Z,11.30
2019-02-28T14:29:24.700Z,11.10
2019-02-28T14:32:09.016Z,11.00
2019-02-28T14:34:52.050Z,11.00
2019-02-28T14:37:33.872Z,10.90
2019-02-28T14:40:17.795Z,10.90
2019-02-28T14:42:59.910Z,11.00
2019-02-28T14:45:43.760Z,11.00
2019-02-28T14:48:26.109Z,11.10
2019-02-28T14:51:08.664Z,11.00
2019-02-28T14:53:51.347Z,10.90
2019-02-28T14:56:33.526Z,10.90
2019-02-28T14:59:15.724Z,10.90
2019-02-28T15:01:58.254Z,10.80
2019-02-28T15:04:42.800Z,10.70
2019-02-28T15:07:24.167Z,10.70
2019-02-28T15:10:06.536Z,10.70
2019-02-28T15:12:49.242Z,10.60
2019-02-28T15:15:31.887Z,10.60
2019-02-28T15:18:14.834Z,10.70
2019-02-28T15:20:57.087Z,10.80
2019-02-28T15:23:39.505Z,10.90
2019-02-28T15:26:22.147Z,10.90
2019-02-28T15:29:04.492Z,11.10
2019-02-28T15:31:46.456Z,11.10
2019-02-28T15:34:28.812Z,11.10
2019-02-28T15:37:10.763Z,10.80
2019-02-28T15:39:53.362Z,10.70
2019-02-28T15:42:35.570Z,10.80
2019-02-28T15:45:17.382Z,10.60
2019-02-28T15:48:00.419Z,10.60
2019-02-28T15:50:42.453Z,10.60
2019-02-28T15:53:24.769Z,10.70
2019-02-28T15:56:12.994Z,10.70
2019-02-28T15:58:50.481Z,10.60
2019-02-28T16:01:33.167Z,10.50
2019-02-28T16:04:15.391Z,10.40
2019-02-28T16:06:58.261Z,10.40
2019-02-28T16:09:40.850Z,10.40
2019-02-28T16:12:23.250Z,10.30
2019-02-28T16:15:08.497Z,10.40
2019-02-28T16:17:49.380Z,10.30
2019-02-28T16:20:32.717Z,10.20
2019-02-28T16:23:15.457Z,10.20
2019-02-28T16:25:57.297Z,10.20
2019-02-28T16:28:42.559Z,10.10
2019-02-28T16:31:23.456Z,10.00
2019-02-28T16:34:08.097Z,9.90
2019-02-28T16:36:49.542Z,9.90
2019-02-28T16:39:31.753Z,9.90
2019-02-28T16:42:13.587Z,9.80
2019-02-28T16:44:55.951Z,10.00
2019-02-28T16:47:38.535Z,10.00
2019-02-28T16:50:20.627Z,10.00
2019-02-28T16:53:02.595Z,10.00
2019-02-28T16:55:45.137Z,10.00
2019-02-28T16:58:27.495Z,10.10
2019-02-28T17:01:09.949Z,10.00
2019-02-28T17:03:52.555Z,10.10
2019-02-28T17:06:35.584Z,10.10
2019-02-28T17:09:22.515Z,10.10
2019-02-28T17:12:27.246Z,10.00
2019-02-28T17:15:12.920Z,9.90
2019-02-28T17:18:18.484Z,9.80
2019-02-28T17:21:01.775Z,9.70
2019-02-28T17:23:45.290Z,9.70
2019-02-28T17:26:46.436Z,9.80
2019-02-28T17:29:50.488Z,9.80
2019-02-28T17:32:33.341Z,9.70
2019-02-28T17:35:15.588Z,9.70
2019-02-28T17:38:00.282Z,9.60
2019-02-28T17:40:43.426Z,9.60
2019-02-28T17:43:25.853Z,9.60
2019-02-28T17:46:08.335Z,9.50
2019-02-28T17:48:52.621Z,9.50
2019-02-28T17:51:34.179Z,9.60
2019-02-28T17:54:17.312Z,9.60
2019-02-28T17:57:00.209Z,9.60
2019-02-28T17:59:42.753Z,9.60
2019-02-28T18:02:25.022Z,9.60
2019-02-28T18:05:07.151Z,9.70
2019-02-28T18:07:49.531Z,9.70
2019-02-28T18:10:31.374Z,9.70
2019-02-28T18:13:16.186Z,9.60
2019-02-28T18:15:57.591Z,9.60
2019-02-28T18:18:41.611Z,9.70
2019-02-28T18:21:23.600Z,9.70
2019-02-28T18:24:05.463Z,9.70
2019-02-28T18:26:47.679Z,9.70
2019-02-28T18:29:31.143Z,9.70
2019-02-28T18:32:14.850Z,9.70
2019-02-28T18:34:57.375Z,9.70
2019-02-28T18:37:39.808Z,9.70
2019-02-28T18:40:22.638Z,9.70
2019-02-28T18:43:05.853Z,9.60
2019-02-28T18:45:48.342Z,9.60
2019-02-28T18:48:30.231Z,9.60
2019-02-28T18:51:12.202Z,9.60
2019-02-28T18:53:54.286Z,9.60
2019-02-28T18:56:36.826Z,9.60
2019-02-28T18:59:18.623Z,9.50
2019-02-28T19:02:01.268Z,9.50
2019-02-28T19:04:43.668Z,9.60
2019-02-28T19:07:26.003Z,9.50
2019-02-28T19:10:08.376Z,9.50
2019-02-28T19:12:50.915Z,9.50
2019-02-28T19:15:33.307Z,9.50
2019-02-28T19:18:17.333Z,9.50
2019-02-28T19:21:00.087Z,9.50
2019-02-28T19:23:42.283Z,9.50
2019-02-28T19:26:24.411Z,9.50
2019-02-28T19:29:06.671Z,9.50
2019-02-28T19:31:49.605Z,9.40
2019-02-28T19:34:32.223Z,9.40
2019-02-28T19:37:14.286Z,9.40
2019-02-28T19:39:56.952Z,9.40
2019-02-28T19:42:39.347Z,9.40
2019-02-28T19:45:21.886Z,9.40
2019-02-28T19:48:04.445Z,9.30
2019-02-28T19:50:47.074Z,9.40
2019-02-28T19:53:29.491Z,9.40
2019-02-28T19:56:11.625Z,9.40
2019-02-28T19:58:53.985Z,9.30
2019-02-28T20:01:36.082Z,9.30
2019-02-28T20:04:18.566Z,9.30
2019-02-28T20:07:01.214Z,9.30
2019-02-28T20:09:43.325Z,9.30
2019-02-28T20:12:25.372Z,9.30
2019-02-28T20:15:07.640Z,9.30
2019-02-28T20:17:49.964Z,9.30
2019-02-28T20:20:31.919Z,9.30
2019-02-28T20:23:14.573Z,9.30
2019-02-28T20:25:57.563Z,9.30
2019-02-28T20:28:39.940Z,9.30
2019-02-28T20:31:21.787Z,9.30
2019-02-28T20:34:03.920Z,9.30
2019-02-28T20:36:46.260Z,9.30
2019-02-28T20:39:28.507Z,9.30
2019-02-28T20:42:10.759Z,9.20
2019-02-28T20:44:53.180Z,9.20
2019-02-28T20:47:35.293Z,9.20
2019-02-28T20:50:17.307Z,9.20
2019-02-28T20:53:00.131Z,9.30
2019-02-28T20:55:42.152Z,9.30
2019-02-28T20:58:24.440Z,9.30
2019-02-28T21:01:07.433Z,9.30
2019-02-28T21:03:49.428Z,9.30
2019-02-28T21:06:31.548Z,9.40
2019-02-28T21:09:14.763Z,9.40
2019-02-28T21:11:56.722Z,9.40
2019-02-28T21:14:38.920Z,9.40
2019-02-28T21:17:29.180Z,9.40
2019-02-28T21:20:05.700Z,9.40
2019-02-28T21:22:48.015Z,9.30
2019-02-28T21:25:30.347Z,9.40
2019-02-28T21:28:12.914Z,9.30
2019-02-28T21:30:55.419Z,9.30
2019-02-28T21:33:37.519Z,9.30
2019-02-28T21:36:19.931Z,9.30
2019-02-28T21:39:02.158Z,9.40
2019-02-28T21:41:44.302Z,9.40
2019-02-28T21:44:27.181Z,9.40
2019-02-28T21:47:09.151Z,9.40
2019-02-28T21:49:51.045Z,9.40
2019-02-28T21:52:33.241Z,9.30
2019-02-28T21:55:15.631Z,9.30
2019-02-28T21:57:57.456Z,9.30
2019-02-28T22:00:39.706Z,9.30
2019-02-28T22:03:21.774Z,9.30
2019-02-28T22:06:03.967Z,9.30
2019-02-28T22:08:46.359Z,9.30
2019-02-28T22:11:28.947Z,9.30
2019-02-28T22:14:11.629Z,9.30
2019-02-28T22:16:53.840Z,9.30
2019-02-28T22:19:36.072Z,9.30
2019-02-28T22:22:17.859Z,9.30
2019-02-28T22:25:00.531Z,9.30
2019-02-28T22:27:42.637Z,9.30
2019-02-28T22:30:49.850Z,9.30
2019-02-28T22:33:50.880Z,9.20
2019-02-28T22:36:36.863Z,9.20
2019-02-28T22:39:19.413Z,9.20
2019-02-28T22:42:02.549Z,9.20
2019-02-28T22:44:44.323Z,9.20
2019-02-28T22:47:26.649Z,9.20
2019-02-28T22:50:08.753Z,9.20
2019-02-28T22:52:51.462Z,9.20
2019-02-28T22:55:33.807Z,9.20
2019-02-28T22:58:15.917Z,9.20
2019-02-28T23:01:17.089Z,9.10
2019-02-28T23:03:59.376Z,9.10
2019-02-28T23:06:41.682Z,9.10
2019-02-28T23:09:23.953Z,9.00
2019-02-28T23:12:06.212Z,9.00
2019-02-28T23:14:48.242Z,9.00
2019-02-28T23:17:30.631Z,9.00
2019-02-28T23:20:12.652Z,8.90
2019-02-28T23:22:54.521Z,8.90
2019-02-28T23:25:36.654Z,8.90
2019-02-28T23:28:18.771Z,8.90
2019-02-28T23:31:01.494Z,8.90
2019-02-28T23:33:43.875Z,8.90
2019-02-28T23:36:25.772Z,8.90
2019-02-28T23:39:08.207Z,8.90
2019-02-28T23:41:50.400Z,8.90
2019-02-28T23:44:32.620Z,8.90
2019-02-28T23:47:14.704Z,8.90
2019-02-28T23:49:56.710Z,8.80
2019-02-28T23:52:39.177Z,8.80
2019-02-28T23:55:21.150Z,8.80
2019-02-28T23:58:02.935Z,8.80
